sensor_id;sensor_type;location;lat;lon;timestamp;P1;durP1;ratioP1;P2;durP2;ratioP2
51489;SDS011;57752;53.574;9.736;2022-12-05T00:00:11;46.80;;;19.40;;
51489;SDS011;57752;53.574;9.736;2022-12-05T00:05:12;44.83;;;19.60;;
51489;SDS011;57752;53.574;9.736;2022-12-05T00:10:12;39.30;;;18.83;;
51489;SDS011;57752;53.574;9.736;2022-12-05T00:15:12;43.08;;;18.90;;
51489;SDS011;57752;53.574;9.736;2022-12-05T00:20:13;41.88;;;20.45;;
51489;SDS011;57752;53.574;9.736;2022-12-05T00:25:13;46.00;;;20.58;;
51489;SDS011;57752;53.574;9.736;2022-12-05T00:30:13;43.20;;;19.45;;
51489;SDS011;57752;53.574;9.736;2022-12-05T00:35:13;42.80;;;20.63;;
51489;SDS011;57752;53.574;9.736;2022-12-05T00:40:13;44.55;;;20.45;;
51489;SDS011;57752;53.574;9.736;2022-12-05T00:45:14;43.17;;;19.25;;
51489;SDS011;57752;53.574;9.736;2022-12-05T00:50:14;44.95;;;20.52;;
51489;SDS011;57752;53.574;9.736;2022-12-05T00:55:14;45.55;;;21.48;;
51489;SDS011;57752;53.574;9.736;2022-12-05T01:00:14;46.88;;;21.25;;
51489;SDS011;57752;53.574;9.736;2022-12-05T01:05:15;46.42;;;20.42;;
51489;SDS011;57752;53.574;9.736;2022-12-05T01:10:15;46.67;;;21.80;;
51489;SDS011;57752;53.574;9.736;2022-12-05T01:15:15;49.65;;;21.10;;
51489;SDS011;57752;53.574;9.736;2022-12-05T01:20:15;45.83;;;20.52;;
51489;SDS011;57752;53.574;9.736;2022-12-05T01:25:15;43.58;;;19.48;;
51489;SDS011;57752;53.574;9.736;2022-12-05T01:30:16;46.15;;;19.67;;
51489;SDS011;57752;53.574;9.736;2022-12-05T01:35:16;43.13;;;19.50;;
51489;SDS011;57752;53.574;9.736;2022-12-05T01:40:16;47.33;;;19.92;;
51489;SDS011;57752;53.574;9.736;2022-12-05T01:45:18;46.45;;;19.50;;
51489;SDS011;57752;53.574;9.736;2022-12-05T01:50:21;38.50;;;19.05;;
51489;SDS011;57752;53.574;9.736;2022-12-05T01:55:21;41.13;;;18.27;;
51489;SDS011;57752;53.574;9.736;2022-12-05T02:00:21;41.58;;;18.25;;
51489;SDS011;57752;53.574;9.736;2022-12-05T02:05:31;46.30;;;20.27;;
51489;SDS011;57752;53.574;9.736;2022-12-05T02:10:37;39.70;;;18.60;;
51489;SDS011;57752;53.574;9.736;2022-12-05T02:15:42;44.80;;;20.08;;
51489;SDS011;57752;53.574;9.736;2022-12-05T02:20:56;45.30;;;19.90;;
51489;SDS011;57752;53.574;9.736;2022-12-05T02:30:59;46.55;;;19.17;;
51489;SDS011;57752;53.574;9.736;2022-12-05T02:36:04;45.15;;;19.77;;
51489;SDS011;57752;53.574;9.736;2022-12-05T02:46:16;45.63;;;19.88;;
51489;SDS011;57752;53.574;9.736;2022-12-05T02:51:18;48.28;;;21.38;;
51489;SDS011;57752;53.574;9.736;2022-12-05T02:56:19;53.47;;;21.73;;
51489;SDS011;57752;53.574;9.736;2022-12-05T03:01:21;57.60;;;22.10;;
51489;SDS011;57752;53.574;9.736;2022-12-05T03:06:24;51.42;;;21.40;;
51489;SDS011;57752;53.574;9.736;2022-12-05T03:11:29;51.15;;;21.42;;
51489;SDS011;57752;53.574;9.736;2022-12-05T03:16:37;55.10;;;23.13;;
51489;SDS011;57752;53.574;9.736;2022-12-05T03:21:40;55.22;;;22.63;;
51489;SDS011;57752;53.574;9.736;2022-12-05T03:26:54;56.17;;;22.23;;
51489;SDS011;57752;53.574;9.736;2022-12-05T03:32:20;56.08;;;23.13;;
51489;SDS011;57752;53.574;9.736;2022-12-05T03:37:26;56.35;;;21.85;;
51489;SDS011;57752;53.574;9.736;2022-12-05T03:42:30;60.35;;;22.77;;
51489;SDS011;57752;53.574;9.736;2022-12-05T03:47:34;54.70;;;21.08;;
51489;SDS011;57752;53.574;9.736;2022-12-05T03:52:45;54.45;;;22.67;;
51489;SDS011;57752;53.574;9.736;2022-12-05T03:57:51;53.72;;;22.85;;
51489;SDS011;57752;53.574;9.736;2022-12-05T04:02:53;52.17;;;22.33;;
51489;SDS011;57752;53.574;9.736;2022-12-05T04:07:57;55.35;;;22.90;;
51489;SDS011;57752;53.574;9.736;2022-12-05T04:12:59;52.50;;;21.38;;
51489;SDS011;57752;53.574;9.736;2022-12-05T04:18:17;57.20;;;22.65;;
51489;SDS011;57752;53.574;9.736;2022-12-05T04:23:18;57.28;;;24.38;;
51489;SDS011;57752;53.574;9.736;2022-12-05T04:33:34;64.50;;;25.00;;
51489;SDS011;57752;53.574;9.736;2022-12-05T04:38:49;67.53;;;26.13;;
51489;SDS011;57752;53.574;9.736;2022-12-05T04:43:50;68.10;;;23.88;;
51489;SDS011;57752;53.574;9.736;2022-12-05T04:48:54;63.47;;;24.77;;
51489;SDS011;57752;53.574;9.736;2022-12-05T04:53:57;64.18;;;24.63;;
51489;SDS011;57752;53.574;9.736;2022-12-05T04:58:59;74.85;;;27.33;;
51489;SDS011;57752;53.574;9.736;2022-12-05T05:04:06;64.82;;;24.90;;
51489;SDS011;57752;53.574;9.736;2022-12-05T05:09:08;68.65;;;25.83;;
51489;SDS011;57752;53.574;9.736;2022-12-05T05:14:09;63.40;;;24.48;;
51489;SDS011;57752;53.574;9.736;2022-12-05T05:19:09;60.60;;;24.17;;
51489;SDS011;57752;53.574;9.736;2022-12-05T05:24:10;66.32;;;25.42;;
51489;SDS011;57752;53.574;9.736;2022-12-05T05:29:11;64.05;;;24.83;;
51489;SDS011;57752;53.574;9.736;2022-12-05T05:34:11;68.70;;;26.35;;
51489;SDS011;57752;53.574;9.736;2022-12-05T05:39:12;69.72;;;26.45;;
51489;SDS011;57752;53.574;9.736;2022-12-05T05:44:12;67.95;;;25.63;;
51489;SDS011;57752;53.574;9.736;2022-12-05T05:49:13;66.13;;;24.77;;
51489;SDS011;57752;53.574;9.736;2022-12-05T05:54:13;66.82;;;24.35;;
51489;SDS011;57752;53.574;9.736;2022-12-05T05:59:13;78.40;;;26.02;;
51489;SDS011;57752;53.574;9.736;2022-12-05T06:04:13;67.88;;;25.08;;
51489;SDS011;57752;53.574;9.736;2022-12-05T06:09:13;71.05;;;25.90;;
51489;SDS011;57752;53.574;9.736;2022-12-05T06:14:13;70.95;;;25.52;;
51489;SDS011;57752;53.574;9.736;2022-12-05T06:19:13;68.35;;;26.55;;
51489;SDS011;57752;53.574;9.736;2022-12-05T06:24:14;76.97;;;27.77;;
51489;SDS011;57752;53.574;9.736;2022-12-05T06:29:14;81.50;;;27.70;;
51489;SDS011;57752;53.574;9.736;2022-12-05T06:34:14;88.60;;;28.00;;
51489;SDS011;57752;53.574;9.736;2022-12-05T06:39:14;81.63;;;28.47;;
51489;SDS011;57752;53.574;9.736;2022-12-05T06:44:14;88.95;;;29.65;;
51489;SDS011;57752;53.574;9.736;2022-12-05T06:49:15;86.18;;;30.73;;
51489;SDS011;57752;53.574;9.736;2022-12-05T06:54:15;81.50;;;28.85;;
51489;SDS011;57752;53.574;9.736;2022-12-05T06:59:15;98.88;;;29.40;;
51489;SDS011;57752;53.574;9.736;2022-12-05T07:04:16;83.45;;;28.02;;
51489;SDS011;57752;53.574;9.736;2022-12-05T07:09:17;85.75;;;28.13;;
51489;SDS011;57752;53.574;9.736;2022-12-05T07:14:18;93.25;;;29.17;;
51489;SDS011;57752;53.574;9.736;2022-12-05T07:19:18;78.45;;;28.63;;
51489;SDS011;57752;53.574;9.736;2022-12-05T07:24:18;92.13;;;30.45;;
51489;SDS011;57752;53.574;9.736;2022-12-05T07:29:18;80.88;;;29.80;;
51489;SDS011;57752;53.574;9.736;2022-12-05T07:34:18;82.68;;;28.83;;
51489;SDS011;57752;53.574;9.736;2022-12-05T07:39:18;92.50;;;29.00;;
51489;SDS011;57752;53.574;9.736;2022-12-05T07:44:19;91.15;;;30.25;;
51489;SDS011;57752;53.574;9.736;2022-12-05T07:49:19;82.70;;;27.65;;
51489;SDS011;57752;53.574;9.736;2022-12-05T07:54:19;99.45;;;29.27;;
51489;SDS011;57752;53.574;9.736;2022-12-05T07:59:19;92.13;;;30.38;;
51489;SDS011;57752;53.574;9.736;2022-12-05T08:04:19;81.93;;;26.52;;
51489;SDS011;57752;53.574;9.736;2022-12-05T08:09:19;78.85;;;26.55;;
51489;SDS011;57752;53.574;9.736;2022-12-05T08:14:20;82.85;;;25.33;;
51489;SDS011;57752;53.574;9.736;2022-12-05T08:19:20;79.47;;;25.77;;
51489;SDS011;57752;53.574;9.736;2022-12-05T08:24:20;88.70;;;28.70;;
51489;SDS011;57752;53.574;9.736;2022-12-05T08:29:20;87.03;;;28.65;;
51489;SDS011;57752;53.574;9.736;2022-12-05T08:34:21;82.13;;;27.27;;
51489;SDS011;57752;53.574;9.736;2022-12-05T08:39:21;87.65;;;26.90;;
51489;SDS011;57752;53.574;9.736;2022-12-05T08:44:21;88.57;;;28.60;;
51489;SDS011;57752;53.574;9.736;2022-12-05T08:49:21;78.85;;;27.10;;
51489;SDS011;57752;53.574;9.736;2022-12-05T08:54:21;79.93;;;26.40;;
51489;SDS011;57752;53.574;9.736;2022-12-05T08:59:21;80.32;;;26.67;;
51489;SDS011;57752;53.574;9.736;2022-12-05T09:04:22;79.38;;;27.52;;
51489;SDS011;57752;53.574;9.736;2022-12-05T09:09:22;78.15;;;25.20;;
51489;SDS011;57752;53.574;9.736;2022-12-05T09:14:22;77.65;;;26.05;;
51489;SDS011;57752;53.574;9.736;2022-12-05T09:19:23;67.28;;;24.50;;
51489;SDS011;57752;53.574;9.736;2022-12-05T09:24:25;64.88;;;24.17;;
51489;SDS011;57752;53.574;9.736;2022-12-05T09:29:26;68.40;;;24.27;;
51489;SDS011;57752;53.574;9.736;2022-12-05T09:34:28;72.63;;;25.00;;
51489;SDS011;57752;53.574;9.736;2022-12-05T09:39:28;58.42;;;22.20;;
51489;SDS011;57752;53.574;9.736;2022-12-05T09:49:48;78.10;;;26.30;;
51489;SDS011;57752;53.574;9.736;2022-12-05T09:54:50;73.82;;;24.55;;
51489;SDS011;57752;53.574;9.736;2022-12-05T09:59:52;64.33;;;22.87;;
51489;SDS011;57752;53.574;9.736;2022-12-05T10:04:54;69.93;;;22.13;;
51489;SDS011;57752;53.574;9.736;2022-12-05T10:15:33;71.68;;;22.05;;
51489;SDS011;57752;53.574;9.736;2022-12-05T10:20:35;62.63;;;21.10;;
51489;SDS011;57752;53.574;9.736;2022-12-05T10:25:40;67.63;;;21.90;;
51489;SDS011;57752;53.574;9.736;2022-12-05T10:30:41;66.63;;;22.20;;
51489;SDS011;57752;53.574;9.736;2022-12-05T10:35:41;65.07;;;22.67;;
51489;SDS011;57752;53.574;9.736;2022-12-05T10:40:43;60.70;;;22.25;;
51489;SDS011;57752;53.574;9.736;2022-12-05T10:45:45;64.67;;;21.90;;
51489;SDS011;57752;53.574;9.736;2022-12-05T10:50:46;54.95;;;18.98;;
51489;SDS011;57752;53.574;9.736;2022-12-05T10:55:47;66.80;;;23.97;;
51489;SDS011;57752;53.574;9.736;2022-12-05T11:00:50;60.60;;;20.23;;
51489;SDS011;57752;53.574;9.736;2022-12-05T11:05:51;50.17;;;18.07;;
51489;SDS011;57752;53.574;9.736;2022-12-05T11:11:05;52.50;;;19.27;;
51489;SDS011;57752;53.574;9.736;2022-12-05T11:21:12;51.20;;;19.15;;
51489;SDS011;57752;53.574;9.736;2022-12-05T11:31:26;52.80;;;17.50;;
51489;SDS011;57752;53.574;9.736;2022-12-05T11:36:38;51.35;;;18.85;;
51489;SDS011;57752;53.574;9.736;2022-12-05T12:08:29;60.10;;;21.42;;
51489;SDS011;57752;53.574;9.736;2022-12-05T12:23:36;54.88;;;20.75;;
51489;SDS011;57752;53.574;9.736;2022-12-05T12:28:45;59.75;;;20.23;;
51489;SDS011;57752;53.574;9.736;2022-12-05T12:33:53;57.35;;;22.27;;
51489;SDS011;57752;53.574;9.736;2022-12-05T12:54:21;53.42;;;21.52;;
51489;SDS011;57752;53.574;9.736;2022-12-05T12:59:32;61.65;;;22.30;;
51489;SDS011;57752;53.574;9.736;2022-12-05T13:10:05;55.53;;;20.02;;
51489;SDS011;57752;53.574;9.736;2022-12-05T13:15:14;58.95;;;22.27;;
51489;SDS011;57752;53.574;9.736;2022-12-05T13:20:19;55.05;;;20.90;;
51489;SDS011;57752;53.574;9.736;2022-12-05T13:25:20;51.58;;;19.17;;
51489;SDS011;57752;53.574;9.736;2022-12-05T13:30:23;51.25;;;20.15;;
51489;SDS011;57752;53.574;9.736;2022-12-05T13:35:33;50.95;;;20.10;;
51489;SDS011;57752;53.574;9.736;2022-12-05T13:40:52;46.20;;;19.38;;
51489;SDS011;57752;53.574;9.736;2022-12-05T13:46:17;47.83;;;19.00;;
51489;SDS011;57752;53.574;9.736;2022-12-05T13:51:30;48.22;;;18.85;;
51489;SDS011;57752;53.574;9.736;2022-12-05T14:01:50;53.25;;;19.70;;
51489;SDS011;57752;53.574;9.736;2022-12-05T14:17:09;50.63;;;20.15;;
51489;SDS011;57752;53.574;9.736;2022-12-05T14:32:59;52.55;;;19.85;;
51489;SDS011;57752;53.574;9.736;2022-12-05T14:38:01;49.05;;;19.40;;
51489;SDS011;57752;53.574;9.736;2022-12-05T14:43:06;54.83;;;20.73;;
51489;SDS011;57752;53.574;9.736;2022-12-05T14:48:22;47.53;;;20.00;;
51489;SDS011;57752;53.574;9.736;2022-12-05T15:04:05;49.42;;;20.30;;
51489;SDS011;57752;53.574;9.736;2022-12-05T15:09:07;48.70;;;19.33;;
51489;SDS011;57752;53.574;9.736;2022-12-05T15:19:11;44.05;;;18.38;;
51489;SDS011;57752;53.574;9.736;2022-12-05T15:24:15;46.33;;;19.13;;
51489;SDS011;57752;53.574;9.736;2022-12-05T15:29:16;49.30;;;19.15;;
51489;SDS011;57752;53.574;9.736;2022-12-05T15:40:01;52.75;;;18.88;;
51489;SDS011;57752;53.574;9.736;2022-12-05T15:55:38;56.63;;;20.63;;
51489;SDS011;57752;53.574;9.736;2022-12-05T16:00:40;51.17;;;20.92;;
51489;SDS011;57752;53.574;9.736;2022-12-05T16:05:53;47.65;;;19.30;;
51489;SDS011;57752;53.574;9.736;2022-12-05T16:10:54;51.70;;;20.80;;
51489;SDS011;57752;53.574;9.736;2022-12-05T16:15:54;55.35;;;21.15;;
51489;SDS011;57752;53.574;9.736;2022-12-05T16:20:54;52.95;;;22.40;;
51489;SDS011;57752;53.574;9.736;2022-12-05T16:31:14;53.53;;;21.42;;
51489;SDS011;57752;53.574;9.736;2022-12-05T16:36:16;53.17;;;20.60;;
51489;SDS011;57752;53.574;9.736;2022-12-05T16:41:17;57.28;;;20.80;;
51489;SDS011;57752;53.574;9.736;2022-12-05T16:51:20;50.60;;;21.50;;
51489;SDS011;57752;53.574;9.736;2022-12-05T16:56:21;52.58;;;21.35;;
51489;SDS011;57752;53.574;9.736;2022-12-05T17:01:23;50.75;;;20.17;;
51489;SDS011;57752;53.574;9.736;2022-12-05T17:06:24;52.70;;;20.92;;
51489;SDS011;57752;53.574;9.736;2022-12-05T17:11:26;50.15;;;21.45;;
51489;SDS011;57752;53.574;9.736;2022-12-05T17:16:27;48.67;;;19.15;;
51489;SDS011;57752;53.574;9.736;2022-12-05T17:21:28;46.13;;;18.48;;
51489;SDS011;57752;53.574;9.736;2022-12-05T17:26:29;52.25;;;20.52;;
51489;SDS011;57752;53.574;9.736;2022-12-05T17:31:30;52.50;;;21.38;;
51489;SDS011;57752;53.574;9.736;2022-12-05T17:36:30;55.00;;;20.48;;
51489;SDS011;57752;53.574;9.736;2022-12-05T17:41:30;54.25;;;21.10;;
51489;SDS011;57752;53.574;9.736;2022-12-05T17:46:30;53.25;;;20.98;;
51489;SDS011;57752;53.574;9.736;2022-12-05T17:51:30;47.67;;;19.65;;
51489;SDS011;57752;53.574;9.736;2022-12-05T17:56:30;47.63;;;19.40;;
51489;SDS011;57752;53.574;9.736;2022-12-05T18:01:30;48.47;;;20.95;;
51489;SDS011;57752;53.574;9.736;2022-12-05T18:06:31;53.25;;;20.30;;
51489;SDS011;57752;53.574;9.736;2022-12-05T18:11:32;50.40;;;19.35;;
51489;SDS011;57752;53.574;9.736;2022-12-05T18:16:32;47.92;;;19.05;;
51489;SDS011;57752;53.574;9.736;2022-12-05T18:21:32;48.78;;;18.67;;
51489;SDS011;57752;53.574;9.736;2022-12-05T18:26:32;50.08;;;19.85;;
51489;SDS011;57752;53.574;9.736;2022-12-05T18:31:33;45.75;;;20.42;;
51489;SDS011;57752;53.574;9.736;2022-12-05T18:36:34;42.35;;;18.30;;
51489;SDS011;57752;53.574;9.736;2022-12-05T18:41:34;48.35;;;19.10;;
51489;SDS011;57752;53.574;9.736;2022-12-05T18:46:34;53.38;;;21.63;;
51489;SDS011;57752;53.574;9.736;2022-12-05T18:51:35;48.53;;;19.27;;
51489;SDS011;57752;53.574;9.736;2022-12-05T18:56:36;53.25;;;23.60;;
51489;SDS011;57752;53.574;9.736;2022-12-05T19:01:39;48.13;;;22.23;;
51489;SDS011;57752;53.574;9.736;2022-12-05T19:06:44;54.38;;;21.75;;
51489;SDS011;57752;53.574;9.736;2022-12-05T19:11:45;54.47;;;23.80;;
51489;SDS011;57752;53.574;9.736;2022-12-05T19:16:50;58.28;;;22.67;;
51489;SDS011;57752;53.574;9.736;2022-12-05T19:21:50;46.70;;;20.48;;
51489;SDS011;57752;53.574;9.736;2022-12-05T19:26:50;52.80;;;20.40;;
51489;SDS011;57752;53.574;9.736;2022-12-05T19:31:51;48.58;;;21.02;;
51489;SDS011;57752;53.574;9.736;2022-12-05T19:36:51;59.33;;;24.42;;
51489;SDS011;57752;53.574;9.736;2022-12-05T19:41:51;47.92;;;20.33;;
51489;SDS011;57752;53.574;9.736;2022-12-05T19:46:51;52.13;;;21.55;;
51489;SDS011;57752;53.574;9.736;2022-12-05T19:51:53;45.53;;;19.70;;
51489;SDS011;57752;53.574;9.736;2022-12-05T19:56:53;43.67;;;19.55;;
51489;SDS011;57752;53.574;9.736;2022-12-05T20:01:57;41.22;;;18.55;;
51489;SDS011;57752;53.574;9.736;2022-12-05T20:06:57;43.47;;;19.15;;
51489;SDS011;57752;53.574;9.736;2022-12-05T20:11:57;41.83;;;17.33;;
51489;SDS011;57752;53.574;9.736;2022-12-05T20:16:57;43.10;;;17.60;;
51489;SDS011;57752;53.574;9.736;2022-12-05T20:21:57;44.92;;;19.58;;
51489;SDS011;57752;53.574;9.736;2022-12-05T20:26:57;36.97;;;17.80;;
51489;SDS011;57752;53.574;9.736;2022-12-05T20:31:58;42.05;;;18.90;;
51489;SDS011;57752;53.574;9.736;2022-12-05T20:36:58;41.42;;;18.77;;
51489;SDS011;57752;53.574;9.736;2022-12-05T20:41:58;44.63;;;19.40;;
51489;SDS011;57752;53.574;9.736;2022-12-05T20:46:58;40.03;;;18.73;;
51489;SDS011;57752;53.574;9.736;2022-12-05T20:51:58;42.67;;;18.92;;
51489;SDS011;57752;53.574;9.736;2022-12-05T20:56:59;44.55;;;18.92;;
51489;SDS011;57752;53.574;9.736;2022-12-05T21:01:59;46.08;;;18.83;;
51489;SDS011;57752;53.574;9.736;2022-12-05T21:06:59;45.83;;;19.95;;
51489;SDS011;57752;53.574;9.736;2022-12-05T21:11:59;58.13;;;21.58;;
51489;SDS011;57752;53.574;9.736;2022-12-05T21:17:00;52.17;;;20.90;;
51489;SDS011;57752;53.574;9.736;2022-12-05T21:22:00;47.95;;;20.80;;
51489;SDS011;57752;53.574;9.736;2022-12-05T21:27:00;67.70;;;22.77;;
51489;SDS011;57752;53.574;9.736;2022-12-05T21:32:00;51.65;;;19.75;;
51489;SDS011;57752;53.574;9.736;2022-12-05T21:37:00;58.85;;;22.33;;
51489;SDS011;57752;53.574;9.736;2022-12-05T21:42:01;51.80;;;20.83;;
51489;SDS011;57752;53.574;9.736;2022-12-05T21:47:01;48.72;;;20.27;;
51489;SDS011;57752;53.574;9.736;2022-12-05T21:52:01;50.03;;;20.95;;
51489;SDS011;57752;53.574;9.736;2022-12-05T21:57:01;54.30;;;20.75;;
51489;SDS011;57752;53.574;9.736;2022-12-05T22:02:01;51.88;;;22.55;;
51489;SDS011;57752;53.574;9.736;2022-12-05T22:07:02;59.17;;;23.52;;
51489;SDS011;57752;53.574;9.736;2022-12-05T22:12:02;51.00;;;21.30;;
51489;SDS011;57752;53.574;9.736;2022-12-05T22:17:02;55.92;;;22.42;;
51489;SDS011;57752;53.574;9.736;2022-12-05T22:22:02;52.45;;;20.98;;
51489;SDS011;57752;53.574;9.736;2022-12-05T22:27:02;55.28;;;20.75;;
51489;SDS011;57752;53.574;9.736;2022-12-05T22:32:02;56.97;;;21.55;;
51489;SDS011;57752;53.574;9.736;2022-12-05T22:37:03;48.75;;;18.75;;
51489;SDS011;57752;53.574;9.736;2022-12-05T22:42:03;44.60;;;17.92;;
51489;SDS011;57752;53.574;9.736;2022-12-05T22:47:03;47.35;;;17.77;;
51489;SDS011;57752;53.574;9.736;2022-12-05T22:52:03;40.08;;;16.90;;
51489;SDS011;57752;53.574;9.736;2022-12-05T22:57:03;48.80;;;18.88;;
51489;SDS011;57752;53.574;9.736;2022-12-05T23:02:03;47.03;;;17.85;;
51489;SDS011;57752;53.574;9.736;2022-12-05T23:07:03;45.70;;;17.95;;
51489;SDS011;57752;53.574;9.736;2022-12-05T23:12:04;46.75;;;17.88;;
51489;SDS011;57752;53.574;9.736;2022-12-05T23:17:04;42.28;;;17.65;;
51489;SDS011;57752;53.574;9.736;2022-12-05T23:22:04;52.25;;;19.20;;
51489;SDS011;57752;53.574;9.736;2022-12-05T23:27:04;45.45;;;17.85;;
51489;SDS011;57752;53.574;9.736;2022-12-05T23:32:04;45.20;;;17.83;;
51489;SDS011;57752;53.574;9.736;2022-12-05T23:37:04;37.60;;;16.55;;
51489;SDS011;57752;53.574;9.736;2022-12-05T23:42:04;43.53;;;18.23;;
51489;SDS011;57752;53.574;9.736;2022-12-05T23:47:05;48.60;;;20.17;;
51489;SDS011;57752;53.574;9.736;2022-12-05T23:52:05;50.60;;;20.55;;
51489;SDS011;57752;53.574;9.736;2022-12-05T23:57:05;54.13;;;21.00;;
